createdAt,value
2022-10-19T00:00:08.755Z,13.34
2022-10-19T00:02:56.432Z,13.34
2022-10-19T00:05:24.128Z,13.33
2022-10-19T00:07:51.891Z,13.35
2022-10-19T00:10:19.651Z,13.36
2022-10-19T00:15:16.190Z,13.32
2022-10-19T00:17:44.500Z,13.31
2022-10-19T00:20:12.641Z,13.29
2022-10-19T00:22:40.507Z,13.32
2022-10-19T00:25:08.592Z,13.32
2022-10-19T00:27:37.347Z,13.33
2022-10-19T00:30:05.812Z,13.32
2022-10-19T00:32:33.919Z,13.26
2022-10-19T00:35:03.654Z,13.21
2022-10-19T00:37:31.482Z,13.22
2022-10-19T00:39:59.315Z,13.17
2022-10-19T00:42:27.101Z,13.18
2022-10-19T00:44:59.690Z,13.17
2022-10-19T00:47:28.092Z,13.15
2022-10-19T00:49:57.262Z,13.13
2022-10-19T00:52:25.559Z,13.12
2022-10-19T00:54:54.169Z,13.11
2022-10-19T00:57:22.985Z,13.11
2022-10-19T00:59:51.387Z,13.07
2022-10-19T01:02:19.108Z,13.10
2022-10-19T01:04:49.230Z,13.14
2022-10-19T01:07:17.266Z,13.16
2022-10-19T01:09:45.201Z,13.15
2022-10-19T01:12:15.833Z,13.10
2022-10-19T01:15:02.712Z,13.12
2022-10-19T01:17:39.513Z,13.10
2022-10-19T01:20:26.020Z,13.04
2022-10-19T01:23:31.811Z,12.98
2022-10-19T01:26:29.967Z,12.94
2022-10-19T01:29:35.243Z,12.87
2022-10-19T01:32:10.072Z,12.82
2022-10-19T01:34:44.725Z,12.85
2022-10-19T01:37:26.605Z,12.77
2022-10-19T01:40:05.086Z,12.69
2022-10-19T01:42:42.339Z,12.70
2022-10-19T01:45:27.345Z,12.72
2022-10-19T01:48:22.465Z,12.70
2022-10-19T01:51:02.581Z,12.67
2022-10-19T01:53:34.651Z,12.70
2022-10-19T01:56:03.342Z,12.74
2022-10-19T01:58:34.167Z,12.75
2022-10-19T02:01:05.381Z,12.78
2022-10-19T02:03:34.707Z,12.85
2022-10-19T02:06:06.854Z,12.90
2022-10-19T02:08:41.644Z,12.90
2022-10-19T02:11:09.554Z,12.91
2022-10-19T02:13:39.217Z,12.92
2022-10-19T02:16:12.054Z,12.92
2022-10-19T02:18:45.166Z,12.90
2022-10-19T02:21:12.964Z,12.95
2022-10-19T02:23:40.775Z,12.98
2022-10-19T02:26:08.783Z,12.98
2022-10-19T02:28:36.709Z,12.93
2022-10-19T02:31:07.078Z,12.90
2022-10-19T02:33:34.885Z,12.87
2022-10-19T02:36:03.922Z,12.89
2022-10-19T02:38:31.889Z,12.85
2022-10-19T02:41:15.966Z,12.82
2022-10-19T02:43:50.547Z,12.84
2022-10-19T02:46:28.128Z,12.84
2022-10-19T02:48:57.225Z,12.81
2022-10-19T02:51:36.616Z,12.78
2022-10-19T02:54:08.376Z,12.72
2022-10-19T02:56:36.138Z,12.75
2022-10-19T02:59:04.195Z,12.82
2022-10-19T03:01:31.991Z,12.85
2022-10-19T03:03:59.777Z,12.88
2022-10-19T03:06:27.610Z,12.95
2022-10-19T03:08:55.411Z,12.99
2022-10-19T03:11:23.122Z,13.00
2022-10-19T03:13:50.844Z,12.95
2022-10-19T03:16:19.017Z,12.85
2022-10-19T03:18:48.739Z,12.83
2022-10-19T03:21:16.799Z,12.81
2022-10-19T03:23:44.502Z,12.75
2022-10-19T03:26:16.329Z,12.72
2022-10-19T03:28:44.220Z,12.68
2022-10-19T03:31:12.094Z,12.71
2022-10-19T03:33:39.959Z,12.75
2022-10-19T03:36:17.828Z,12.76
2022-10-19T03:38:45.725Z,12.77
2022-10-19T03:41:13.535Z,12.80
2022-10-19T03:43:41.334Z,12.79
2022-10-19T03:46:09.429Z,12.80
2022-10-19T03:48:37.270Z,12.75
2022-10-19T03:51:07.742Z,12.62
2022-10-19T03:53:43.096Z,12.53
2022-10-19T03:56:13.501Z,12.53
2022-10-19T03:58:42.415Z,12.53
2022-10-19T04:01:21.438Z,12.50
2022-10-19T04:03:54.479Z,12.45
2022-10-19T04:06:26.062Z,12.47
2022-10-19T04:08:53.890Z,12.45
2022-10-19T04:11:24.739Z,12.40
2022-10-19T04:13:53.510Z,12.39
2022-10-19T04:16:22.483Z,12.38
2022-10-19T04:18:50.715Z,12.34
2022-10-19T04:21:22.916Z,12.33
2022-10-19T04:23:53.620Z,12.31
2022-10-19T04:26:21.433Z,12.28
2022-10-19T04:28:49.775Z,12.22
2022-10-19T04:31:17.580Z,12.12
2022-10-19T04:36:14.167Z,11.90
2022-10-19T04:38:42.018Z,11.78
2022-10-19T04:41:12.651Z,11.78
2022-10-19T04:43:40.975Z,11.75
2022-10-19T04:46:19.298Z,11.77
2022-10-19T04:48:50.346Z,11.75
2022-10-19T04:51:24.537Z,11.76
2022-10-19T04:53:57.006Z,11.76
2022-10-19T04:56:28.173Z,11.73
2022-10-19T04:58:57.514Z,11.68
2022-10-19T05:01:27.428Z,11.66
2022-10-19T05:04:00.637Z,11.69
2022-10-19T05:06:29.867Z,11.70
2022-10-19T05:08:57.702Z,11.68
2022-10-19T05:11:26.095Z,11.66
2022-10-19T05:13:54.189Z,11.62
2022-10-19T05:16:23.926Z,11.63
2022-10-19T05:18:56.153Z,11.65
2022-10-19T05:21:24.399Z,11.72
2022-10-19T05:23:53.612Z,11.68
2022-10-19T05:26:23.654Z,11.65
2022-10-19T05:28:57.060Z,11.69
2022-10-19T05:31:27.276Z,11.66
2022-10-19T05:33:58.595Z,11.65
2022-10-19T05:36:28.920Z,11.66
2022-10-19T05:38:57.716Z,11.64
2022-10-19T05:41:26.427Z,11.63
2022-10-19T05:43:56.422Z,11.63
2022-10-19T05:46:24.826Z,11.68
2022-10-19T05:48:52.750Z,11.74
2022-10-19T05:51:22.308Z,11.71
2022-10-19T05:53:50.172Z,11.75
2022-10-19T05:56:20.505Z,11.75
2022-10-19T05:58:49.147Z,11.76
2022-10-19T06:01:19.085Z,11.76
2022-10-19T06:03:48.105Z,11.74
2022-10-19T06:06:15.867Z,11.73
2022-10-19T06:08:43.802Z,11.73
2022-10-19T06:11:20.368Z,11.73
2022-10-19T06:13:50.505Z,11.74
2022-10-19T06:16:19.631Z,11.82
2022-10-19T06:18:47.425Z,11.85
2022-10-19T06:21:21.231Z,11.84
2022-10-19T06:23:53.484Z,11.79
2022-10-19T06:26:21.157Z,11.75
2022-10-19T06:28:49.972Z,11.78
2022-10-19T06:31:18.399Z,11.82
2022-10-19T06:33:49.192Z,11.77
2022-10-19T06:36:22.725Z,11.75
2022-10-19T06:38:51.413Z,11.75
2022-10-19T06:41:19.520Z,11.76
2022-10-19T06:43:51.446Z,11.78
2022-10-19T06:46:22.034Z,11.79
2022-10-19T06:48:57.577Z,11.78
2022-10-19T06:51:26.902Z,11.81
2022-10-19T06:53:57.026Z,11.82
2022-10-19T06:56:26.653Z,11.83
2022-10-19T06:58:54.729Z,11.83
2022-10-19T07:01:23.377Z,11.90
2022-10-19T07:03:52.410Z,11.99
2022-10-19T07:06:20.805Z,12.04
2022-10-19T07:08:48.751Z,12.11
2022-10-19T07:11:18.960Z,12.20
2022-10-19T07:13:46.891Z,12.29
2022-10-19T07:16:19.779Z,12.37
2022-10-19T07:18:53.085Z,12.41
2022-10-19T07:21:22.593Z,12.35
2022-10-19T07:23:50.942Z,12.32
2022-10-19T07:26:27.357Z,12.33
2022-10-19T07:28:56.865Z,12.35
2022-10-19T07:31:25.701Z,12.39
2022-10-19T07:33:54.982Z,12.40
2022-10-19T07:36:26.414Z,12.39
2022-10-19T07:38:54.519Z,12.41
2022-10-19T07:41:25.206Z,12.44
2022-10-19T07:43:53.525Z,12.45
2022-10-19T07:46:25.257Z,12.46
2022-10-19T07:48:53.550Z,12.55
2022-10-19T07:51:22.673Z,12.60
2022-10-19T07:53:50.632Z,12.66
2022-10-19T07:56:20.860Z,12.70
2022-10-19T07:58:49.972Z,12.73
2022-10-19T08:01:20.198Z,12.71
2022-10-19T08:06:37.457Z,12.89
2022-10-19T08:09:05.805Z,12.92
2022-10-19T08:11:35.428Z,12.99
2022-10-19T08:14:04.057Z,13.04
2022-10-19T08:16:37.448Z,13.05
2022-10-19T08:19:08.062Z,13.10
2022-10-19T08:21:37.092Z,13.07
2022-10-19T08:24:06.057Z,13.16
2022-10-19T08:26:36.085Z,13.30
2022-10-19T08:29:05.861Z,13.43
2022-10-19T08:31:33.712Z,13.56
2022-10-19T08:34:01.535Z,13.65
2022-10-19T08:36:31.356Z,13.64
2022-10-19T08:38:59.173Z,13.62
2022-10-19T08:41:38.023Z,13.55
2022-10-19T08:44:39.880Z,13.55
2022-10-19T08:47:27.592Z,13.62
2022-10-19T08:49:59.123Z,13.88
2022-10-19T08:52:34.272Z,13.98
2022-10-19T08:55:09.041Z,14.29
2022-10-19T08:57:37.318Z,14.77
2022-10-19T09:03:27.105Z,14.69
2022-10-19T09:06:22.589Z,14.61
2022-10-19T09:08:55.429Z,14.50
2022-10-19T09:11:30.850Z,14.34
2022-10-19T09:14:26.141Z,14.31
2022-10-19T09:16:59.230Z,14.32
2022-10-19T09:19:30.131Z,14.28
2022-10-19T09:21:59.270Z,14.25
2022-10-19T09:24:30.417Z,14.15
2022-10-19T09:27:02.038Z,14.07
2022-10-19T09:29:37.187Z,14.06
2022-10-19T09:32:12.468Z,14.09
2022-10-19T09:34:46.826Z,14.08
2022-10-19T09:37:23.250Z,14.06
2022-10-19T09:39:55.191Z,14.13
2022-10-19T09:42:33.022Z,14.24
2022-10-19T09:45:06.786Z,14.24
2022-10-19T09:47:39.569Z,14.35
2022-10-19T09:50:08.914Z,14.64
2022-10-19T09:52:40.655Z,14.70
2022-10-19T09:55:14.628Z,14.81
2022-10-19T09:57:59.514Z,14.85
2022-10-19T10:00:36.738Z,14.77
2022-10-19T10:03:06.222Z,14.73
2022-10-19T10:05:39.096Z,14.72
2022-10-19T10:08:14.789Z,14.70
2022-10-19T10:10:49.091Z,14.83
2022-10-19T10:13:18.794Z,15.21
2022-10-19T10:15:54.792Z,15.29
2022-10-19T10:18:23.896Z,15.45
2022-10-19T10:21:32.184Z,15.65
2022-10-19T10:24:12.048Z,15.89
2022-10-19T10:26:42.589Z,15.65
2022-10-19T10:29:18.061Z,15.77
2022-10-19T10:31:49.051Z,16.35
2022-10-19T10:34:38.573Z,16.90
2022-10-19T10:37:19.498Z,17.57
2022-10-19T10:39:51.971Z,18.11
2022-10-19T10:42:26.487Z,18.54
2022-10-19T10:44:56.309Z,18.15
2022-10-19T10:47:27.068Z,17.49
2022-10-19T10:50:07.070Z,16.93
2022-10-19T10:52:37.081Z,16.45
2022-10-19T10:55:08.566Z,15.96
2022-10-19T10:57:53.915Z,15.62
2022-10-19T11:00:25.122Z,15.30
2022-10-19T11:03:05.393Z,15.02
2022-10-19T11:05:41.116Z,14.73
2022-10-19T11:08:27.605Z,14.45
2022-10-19T11:11:15.009Z,14.23
2022-10-19T11:13:47.791Z,14.07
2022-10-19T11:16:18.296Z,14.07
2022-10-19T11:18:53.832Z,14.11
2022-10-19T11:21:47.103Z,14.18
2022-10-19T11:27:27.712Z,14.21
2022-10-19T11:30:13.571Z,14.13
2022-10-19T11:33:02.048Z,14.01
2022-10-19T11:35:39.323Z,13.84
2022-10-19T11:38:29.758Z,13.71
2022-10-19T11:41:39.280Z,13.67
2022-10-19T11:44:23.644Z,13.61
2022-10-19T11:47:01.031Z,13.48
2022-10-19T11:49:34.762Z,13.39
2022-10-19T11:52:49.712Z,13.30
2022-10-19T11:55:33.574Z,13.20
2022-10-19T11:58:32.347Z,13.14
2022-10-19T12:01:40.925Z,13.12
2022-10-19T12:04:28.690Z,13.12
2022-10-19T12:07:18.120Z,13.25
2022-10-19T12:10:08.439Z,13.39
2022-10-19T12:12:45.190Z,13.59
2022-10-19T12:15:28.203Z,13.70
2022-10-19T12:18:01.808Z,13.81
2022-10-19T12:20:50.324Z,13.86
2022-10-19T12:23:27.044Z,13.91
2022-10-19T12:25:56.647Z,13.92
2022-10-19T12:28:55.735Z,13.91
2022-10-19T12:31:31.974Z,13.84
2022-10-19T12:34:09.996Z,13.83
2022-10-19T12:36:45.694Z,13.79
2022-10-19T12:39:21.490Z,13.67
2022-10-19T12:42:18.766Z,13.51
2022-10-19T12:45:06.879Z,13.39
2022-10-19T12:47:34.976Z,13.28
2022-10-19T12:50:03.554Z,13.22
2022-10-19T12:52:36.524Z,13.16
2022-10-19T12:55:16.836Z,13.15
2022-10-19T12:57:48.311Z,13.15
2022-10-19T13:00:25.226Z,13.17
2022-10-19T13:03:00.056Z,13.12
2022-10-19T13:05:29.761Z,13.09
2022-10-19T13:07:58.355Z,13.08
2022-10-19T13:10:28.243Z,13.07
2022-10-19T13:12:56.226Z,13.07
2022-10-19T13:15:36.577Z,13.15
2022-10-19T13:18:16.902Z,13.22
2022-10-19T13:20:52.637Z,13.28
2022-10-19T13:23:26.568Z,13.35
2022-10-19T13:26:32.985Z,13.49
2022-10-19T13:29:01.354Z,13.56
2022-10-19T13:31:31.081Z,13.59
2022-10-19T13:33:59.108Z,13.64
2022-10-19T13:36:27.319Z,13.71
2022-10-19T13:39:03.037Z,13.81
2022-10-19T13:41:37.133Z,13.98
2022-10-19T13:44:18.262Z,14.09
2022-10-19T13:47:08.739Z,14.22
2022-10-19T13:50:04.434Z,14.24
2022-10-19T13:52:42.625Z,14.29
2022-10-19T13:55:47.239Z,14.37
2022-10-19T13:58:46.417Z,14.46
2022-10-19T14:01:55.407Z,14.65
2022-10-19T14:04:40.899Z,15.42
2022-10-19T14:07:25.191Z,15.63
2022-10-19T14:10:08.346Z,16.38
2022-10-19T14:12:40.861Z,17.10
2022-10-19T14:15:27.416Z,18.50
2022-10-19T14:17:57.766Z,19.97
2022-10-19T14:20:56.184Z,20.23
2022-10-19T14:23:32.621Z,19.62
2022-10-19T14:26:15.366Z,19.24
2022-10-19T14:28:43.492Z,19.68
2022-10-19T14:31:19.193Z,20.04
2022-10-19T14:33:48.684Z,19.29
2022-10-19T14:36:22.383Z,18.89
2022-10-19T14:38:55.089Z,19.60
2022-10-19T14:41:28.900Z,20.53
2022-10-19T14:44:10.006Z,19.74
2022-10-19T14:46:50.086Z,19.03
2022-10-19T14:49:21.354Z,19.73
2022-10-19T14:51:52.177Z,20.39
2022-10-19T14:54:25.661Z,19.61
2022-10-19T14:56:56.479Z,18.83
2022-10-19T14:59:35.797Z,18.21
2022-10-19T15:02:37.518Z,17.78
2022-10-19T15:05:07.112Z,17.39
2022-10-19T15:07:40.495Z,16.99
2022-10-19T15:10:18.741Z,16.85
2022-10-19T15:12:46.678Z,17.26
2022-10-19T15:15:37.441Z,16.90
2022-10-19T15:18:06.591Z,16.39
2022-10-19T15:20:49.227Z,16.11
2022-10-19T15:23:39.075Z,15.79
2022-10-19T15:26:37.120Z,15.32
2022-10-19T15:29:20.817Z,14.93
2022-10-19T15:32:21.945Z,14.59
2022-10-19T15:34:49.830Z,14.22
2022-10-19T15:37:23.090Z,13.92
2022-10-19T15:39:52.012Z,13.70
2022-10-19T15:42:52.278Z,13.53
2022-10-19T15:45:37.618Z,13.36
2022-10-19T15:48:24.710Z,13.15
2022-10-19T15:50:55.770Z,12.92
2022-10-19T15:53:26.971Z,12.76
2022-10-19T15:55:55.452Z,12.59
2022-10-19T15:58:26.663Z,12.47
2022-10-19T16:04:28.495Z,12.43
2022-10-19T16:07:11.609Z,12.38
2022-10-19T16:09:57.343Z,12.40
2022-10-19T16:12:44.503Z,12.37
2022-10-19T16:15:14.076Z,12.29
2022-10-19T16:17:57.440Z,12.24
2022-10-19T16:20:37.655Z,12.22
2022-10-19T16:23:23.048Z,12.23
2022-10-19T16:25:57.303Z,12.25
2022-10-19T16:28:59.646Z,12.24
2022-10-19T16:31:56.981Z,12.07
2022-10-19T16:34:26.472Z,12.04
2022-10-19T16:37:04.258Z,12.06
2022-10-19T16:39:34.947Z,12.11
2022-10-19T16:42:34.044Z,12.16
2022-10-19T16:45:16.938Z,12.22
2022-10-19T16:48:09.932Z,12.28
2022-10-19T16:50:41.232Z,12.31
2022-10-19T16:53:20.742Z,12.39
2022-10-19T16:55:52.049Z,12.39
2022-10-19T16:58:37.268Z,12.42
2022-10-19T17:01:19.077Z,12.44
2022-10-19T17:05:07.874Z,12.39
2022-10-19T17:08:36.753Z,12.37
2022-10-19T17:12:03.946Z,12.39
2022-10-19T17:15:40.831Z,12.38
2022-10-19T17:18:35.872Z,12.38
2022-10-19T17:24:53.605Z,12.40
2022-10-19T17:27:39.573Z,12.42
2022-10-19T17:31:21.686Z,12.39
2022-10-19T17:34:03.408Z,12.39
2022-10-19T17:39:53.363Z,12.41
2022-10-19T17:42:49.321Z,12.39
2022-10-19T17:45:35.643Z,12.35
2022-10-19T17:48:17.160Z,12.31
2022-10-19T17:54:21.638Z,12.15
2022-10-19T17:56:54.512Z,12.06
2022-10-19T17:59:46.678Z,11.98
2022-10-19T18:02:31.803Z,11.91
2022-10-19T18:05:07.051Z,11.85
2022-10-19T18:07:46.683Z,11.82
2022-10-19T18:10:16.341Z,11.78
2022-10-19T18:13:00.225Z,11.75
2022-10-19T18:15:35.543Z,11.70
2022-10-19T18:18:41.137Z,11.63
2022-10-19T18:21:24.014Z,11.57
2022-10-19T18:24:27.344Z,11.51
2022-10-19T18:26:55.224Z,11.45
2022-10-19T18:30:01.408Z,11.39
2022-10-19T18:32:25.177Z,11.30
2022-10-19T18:35:01.374Z,11.20
2022-10-19T18:37:42.189Z,11.14
2022-10-19T18:40:11.934Z,11.10
2022-10-19T18:42:55.968Z,11.08
2022-10-19T18:46:01.276Z,11.06
2022-10-19T18:48:42.057Z,11.06
2022-10-19T18:57:09.358Z,11.06
2022-10-19T19:01:05.303Z,10.88
2022-10-19T19:11:59.667Z,10.66
2022-10-19T19:14:32.529Z,10.58
2022-10-19T19:22:51.099Z,10.39
2022-10-19T19:24:49.077Z,10.50
2022-10-19T19:25:08.305Z,10.35
2022-10-19T19:27:42.062Z,10.35
2022-10-19T19:30:51.363Z,10.33
2022-10-19T19:33:23.793Z,10.29
2022-10-19T19:36:18.548Z,10.24
2022-10-19T19:38:51.518Z,10.16
2022-10-19T19:41:19.945Z,10.14
2022-10-19T19:43:47.976Z,10.12
2022-10-19T19:46:17.941Z,10.09
2022-10-19T19:48:47.992Z,10.08
2022-10-19T19:51:18.616Z,10.01
2022-10-19T19:53:47.666Z,9.92
2022-10-19T19:56:22.164Z,9.84
2022-10-19T19:58:54.588Z,9.79
2022-10-19T20:01:22.695Z,9.77
2022-10-19T20:03:52.995Z,9.73
2022-10-19T20:06:26.147Z,9.76
2022-10-19T20:08:57.482Z,9.77
2022-10-19T20:11:41.238Z,9.81
2022-10-19T20:14:16.749Z,9.86
2022-10-19T20:16:44.686Z,9.89
2022-10-19T20:19:38.346Z,9.92
2022-10-19T20:22:07.363Z,9.93
2022-10-19T20:24:36.945Z,9.89
2022-10-19T20:27:43.794Z,9.84
2022-10-19T20:30:11.897Z,9.78
2022-10-19T20:36:12.355Z,9.71
2022-10-19T20:38:40.833Z,9.66
2022-10-19T20:41:10.472Z,9.65
2022-10-19T20:43:39.020Z,9.66
2022-10-19T20:46:25.011Z,9.61
2022-10-19T20:49:02.093Z,9.53
2022-10-19T20:51:32.854Z,9.48
2022-10-19T20:54:02.728Z,9.46
2022-10-19T20:56:34.468Z,9.46
2022-10-19T20:59:05.155Z,9.44
2022-10-19T21:01:35.701Z,9.44
2022-10-19T21:04:05.159Z,9.43
2022-10-19T21:07:32.054Z,9.40
2022-10-19T21:10:03.019Z,9.35
2022-10-19T21:12:30.737Z,9.31
2022-10-19T21:14:58.547Z,9.27
2022-10-19T21:17:29.129Z,9.24
2022-10-19T21:22:46.197Z,9.21
2022-10-19T21:25:13.939Z,9.18
2022-10-19T21:27:41.709Z,9.16
2022-10-19T21:30:10.114Z,9.16
2022-10-19T21:32:37.874Z,9.14
2022-10-19T21:35:05.970Z,9.12
2022-10-19T21:37:36.340Z,9.10
2022-10-19T21:40:04.451Z,9.07
2022-10-19T21:42:32.159Z,9.08
2022-10-19T21:45:11.822Z,9.06
2022-10-19T21:47:48.899Z,9.05
2022-10-19T21:50:17.481Z,9.04
2022-10-19T21:52:45.338Z,9.01
2022-10-19T21:55:13.130Z,8.98
2022-10-19T21:57:40.920Z,8.96
2022-10-19T22:00:09.292Z,8.93
2022-10-19T22:02:40.666Z,8.95
2022-10-19T22:05:08.592Z,8.93
2022-10-19T22:07:36.699Z,8.95
2022-10-19T22:10:05.151Z,8.97
2022-10-19T22:12:33.149Z,9.01
2022-10-19T22:15:01.052Z,9.03
2022-10-19T22:17:28.799Z,9.05
2022-10-19T22:19:56.549Z,9.08
2022-10-19T22:22:24.306Z,9.06
2022-10-19T22:24:52.053Z,9.05
2022-10-19T22:27:19.813Z,9.02
2022-10-19T22:29:47.620Z,8.95
2022-10-19T22:32:15.362Z,8.86
2022-10-19T22:34:43.071Z,8.77
2022-10-19T22:37:10.795Z,8.72
2022-10-19T22:39:38.709Z,8.68
2022-10-19T22:42:06.480Z,8.67
2022-10-19T22:44:34.265Z,8.59
2022-10-19T22:47:02.047Z,8.54
2022-10-19T22:49:29.831Z,8.47
2022-10-19T22:51:57.553Z,8.43
2022-10-19T22:54:25.826Z,8.44
2022-10-19T22:56:53.674Z,8.47
2022-10-19T22:59:21.491Z,8.51
2022-10-19T23:01:49.276Z,8.52
2022-10-19T23:04:17.047Z,8.54
2022-10-19T23:06:44.795Z,8.57
2022-10-19T23:09:12.676Z,8.55
2022-10-19T23:11:40.380Z,8.54
2022-10-19T23:14:09.360Z,8.52
2022-10-19T23:16:37.128Z,8.49
2022-10-19T23:19:04.845Z,8.47
2022-10-19T23:21:32.648Z,8.46
2022-10-19T23:24:00.656Z,8.44
2022-10-19T23:26:28.440Z,8.41
2022-10-19T23:28:56.154Z,8.36
2022-10-19T23:31:26.416Z,8.25
2022-10-19T23:33:54.452Z,8.18
2022-10-19T23:36:24.452Z,8.15
2022-10-19T23:38:53.499Z,8.14
2022-10-19T23:41:21.915Z,8.16
2022-10-19T23:43:49.865Z,8.20
2022-10-19T23:46:17.644Z,8.22
2022-10-19T23:48:45.418Z,8.22
2022-10-19T23:51:16.236Z,8.28
2022-10-19T23:53:45.577Z,8.33
2022-10-19T23:56:16.031Z,8.35
2022-10-19T23:58:44.387Z,8.30
